Have a Safe July 4th! 

Flight Track Log - Related Links

Times and Time Zones

All times are in EDT time to prevent confusion due to time zone crossing. See the UAL335 flight status page for this flight to view local times or setup timezone preferences in your user account.

Time Position Orientation Groundspeed Altitude Reporting Facility
EDT Latitude Longitude Course Direction KTS MPH feet Rate Location/Type
Fri 05:25:07 PM 27.9667 -82.5500 354° North 166 191 800  Level Tampa TRACON
Fri 05:25:25 PM 27.9500 -82.5500 180° South 144 166 1,500 1,538 Climbing Tampa TRACON
Fri 05:26:25 PM 27.9167 -82.5667 204° Southwest 210 242 2,800 2,172 Climbing Tampa TRACON
Fri 05:28:00 PM 28.4778 -82.5761 355° North  Level FlightAware Approximate
Fri 05:28:08 PM 27.9931 -82.6247 326° Northwest 241 277 7,400  Level Jacksonville Center
Fri 05:29:00 PM 28.6070 -82.5833 North  Level FlightAware Approximate
Fri 05:29:08 PM 28.0786 -82.6128 North 268 308 10,300  Level Jacksonville Center
Fri 05:30:00 PM 28.7359 -82.5920 354° North  Level FlightAware Approximate
Fri 05:30:08 PM 28.1767 -82.6031 North 304 350 11,000  Level Jacksonville Center
Fri 05:31:08 PM 28.2914 -82.5908 North 368 423 12,600 1,950 Climbing Jacksonville Center
Fri 05:32:08 PM 28.4061 -82.5858 North 391 450 14,900 2,000 Climbing Jacksonville Center
Fri 05:33:08 PM 28.5253 -82.5878 359° North 411 473 16,600 1,600 Climbing Jacksonville Center
Fri 05:34:08 PM 28.6461 -82.5897 359° North 424 488 18,100 1,650 Climbing Jacksonville Center
Fri 05:35:08 PM 28.7672 -82.6014 355° North 430 495 19,900 1,500 Climbing Jacksonville Center
Fri 05:36:08 PM 28.8906 -82.6200 352° North 436 502 21,100 1,100 Climbing Jacksonville Center
Fri 05:37:08 PM 29.0178 -82.6386 353° North 450 518 22,100 1,050 Climbing Jacksonville Center
Fri 05:38:08 PM 29.1494 -82.6547 354° North 462 532 23,200 1,050 Climbing Jacksonville Center
Fri 05:39:08 PM 29.2831 -82.6736 353° North 472 543 24,200 1,050 Climbing Jacksonville Center
Fri 05:40:08 PM 29.4186 -82.6900 354° North 478 550 25,300 1,150 Climbing Jacksonville Center
Fri 05:41:08 PM 29.5586 -82.6969 358° North 489 563 26,500 1,100 Climbing Jacksonville Center
Fri 05:42:08 PM 29.6986 -82.6942 North 494 568 27,500 1,450 Climbing Jacksonville Center
Fri 05:43:08 PM 29.8322 -82.6939 360° North 487 560 29,400 1,900 Climbing Jacksonville Center
Fri 05:44:08 PM 29.9617 -82.6911 North 475 547 31,300 1,650 Climbing Jacksonville Center
Fri 05:45:08 PM 30.1036 -82.6886 North 468 539 32,700 1,200 Climbing Jacksonville Center
Fri 05:46:08 PM 30.2350 -82.6667 North 462 532 33,700 1,050 Climbing Jacksonville Center
Fri 05:47:08 PM 30.3478 -82.6375 13° North 462 532 34,800 850 Climbing Jacksonville Center
Fri 05:48:08 PM 30.4750 -82.6033 13° North 462 532 35,400 800 Climbing Jacksonville Center
Fri 05:49:08 PM 30.6044 -82.5789 North 469 540 36,400 700 Climbing Jacksonville Center
Fri 05:50:08 PM 30.7339 -82.5686 North 469 540 36,800 250 Climbing Jacksonville Center
Fri 05:51:08 PM 30.8633 -82.5611 North 464 534 36,900 50 Climbing Jacksonville Center
Fri 05:52:08 PM 30.9947 -82.5072 19° North 472 543 36,900  Level Jacksonville Center
Fri 05:53:08 PM 31.1258 -82.4436 23° Northeast 483 556 36,900  Level Jacksonville Center
Fri 05:54:08 PM 31.2594 -82.3797 22° Northeast 497 572 36,900 50 Level Jacksonville Center
Fri 05:55:08 PM 31.3928 -82.3133 23° Northeast 507 583 37,000  Climbing Jacksonville Center
Fri 05:56:08 PM 31.5197 -82.2517 22° Northeast 507 583 36,900  Descending Jacksonville Center
Fri 05:57:08 PM 31.6489 -82.1847 24° Northeast 502 578 37,000 50 Climbing Jacksonville Center
Fri 05:58:08 PM 31.7903 -82.1128 23° Northeast 495 570 37,000  Level Jacksonville Center
Fri 05:59:08 PM 31.9175 -82.0506 23° Northeast 500 575 37,000  Level Jacksonville Center
Fri 06:00:08 PM 32.0381 -81.9906 23° Northeast 508 585 37,000  Level Jacksonville Center
Fri 06:01:08 PM 32.1817 -81.9206 22° Northeast 515 593 37,000  Level Jacksonville Center
Fri 06:02:08 PM 32.3167 -81.8528 23° Northeast 518 596 37,000  Level Jacksonville Center
Fri 06:03:08 PM 32.4311 -81.7922 24° Northeast 512 589 37,000  Level Jacksonville Center
Fri 06:04:08 PM 32.5725 -81.7192 24° Northeast 502 578 37,000  Level Jacksonville Center
Fri 06:05:08 PM 32.6783 -81.6683 22° Northeast 502 578 37,000  Level Jacksonville Center
Fri 06:06:08 PM 32.8217 -81.5947 23° Northeast 502 578 37,000  Level Jacksonville Center
Fri 06:07:08 PM 32.9544 -81.5261 23° Northeast 502 578 37,000  Level Jacksonville Center
Fri 06:08:08 PM 33.0833 -81.4622 23° Northeast 502 578 37,000 350 Level Jacksonville Center
Fri 06:09:08 PM 33.2161 -81.3978 22° Northeast 502 578 37,700 500 Climbing Jacksonville Center
Fri 06:10:08 PM 33.3508 -81.3333 22° Northeast 508 585 38,000 100 Climbing Jacksonville Center
Fri 06:11:08 PM 33.4817 -81.2689 22° Northeast 508 585 37,900  Descending Jacksonville Center
Fri 06:12:08 PM 33.6144 -81.2067 21° North 508 585 38,000 50 Climbing Jacksonville Center
Fri 06:13:08 PM 33.7492 -81.1417 22° Northeast 513 590 38,000  Level Jacksonville Center
Fri 06:14:07 PM 33.8836 -81.0689 24° Northeast 513 590 38,000  Level Jacksonville Center
Fri 06:16:17 PM 34.1681 -80.9306 22° Northeast 500 575 38,000  Level Atlanta Center
Fri 06:17:17 PM 34.3042 -80.8628 22° Northeast 510 587 38,000  Level Atlanta Center
Fri 06:18:17 PM 34.4506 -80.7892 23° Northeast 514 592 38,000  Level Atlanta Center
Fri 06:19:17 PM 34.5844 -80.7261 21° North 509 586 38,000  Level Atlanta Center
Fri 06:20:17 PM 34.7222 -80.6550 23° Northeast 520 598 38,000  Level Atlanta Center
Fri 06:21:17 PM 34.8600 -80.5836 23° Northeast 528 608 38,000  Level Atlanta Center
Fri 06:22:17 PM 34.9814 -80.5228 22° Northeast 528 608 38,000  Level Atlanta Center
Fri 06:23:17 PM 35.1192 -80.4533 22° Northeast 528 608 38,000  Level Atlanta Center
Fri 06:24:17 PM 35.2592 -80.3836 22° Northeast 528 608 38,000 -50 Level Atlanta Center
Fri 06:25:17 PM 35.3925 -80.3142 23° Northeast 528 608 37,900 -450 Descending Atlanta Center
Fri 06:26:17 PM 35.5303 -80.2442 22° Northeast 528 608 37,100 -450 Descending Atlanta Center
Fri 06:27:17 PM 35.6800 -80.1631 24° Northeast 528 608 37,000 -35 Descending Atlanta Center
Fri 06:29:07 PM 35.9358 -80.0353 22° Northeast 552 635 37,000  Level Washington Center
Fri 06:30:07 PM 36.0625 -79.9369 32° Northeast 540 621 37,000  Level Washington Center
Fri 06:31:07 PM 36.1672 -79.8117 44° Northeast 525 604 37,000  Level Washington Center
Fri 06:32:07 PM 36.2661 -79.6675 50° Northeast 532 612 37,000  Level Washington Center
Fri 06:33:07 PM 36.3589 -79.5769 38° Northeast 532 612 37,000  Level Washington Center
Fri 06:34:07 PM 36.4883 -79.4439 40° Northeast 532 612 37,000 50 Level Washington Center
Fri 06:35:07 PM 36.6050 -79.3231 40° Northeast 538 619 37,100  Climbing Washington Center
Fri 06:36:07 PM 36.7214 -79.2042 39° Northeast 544 626 37,000 -50 Descending Washington Center
Fri 06:37:07 PM 36.8583 -79.0858 35° Northeast 544 626 37,000  Level Washington Center
Fri 06:38:07 PM 36.9825 -78.9772 35° Northeast 544 626 37,000  Level Washington Center
Fri 06:39:07 PM 37.0967 -78.8494 42° Northeast 544 626 37,000  Level Washington Center
Fri 06:40:07 PM 37.1917 -78.7231 47° Northeast 539 620 37,000  Level Washington Center
Fri 06:41:07 PM 37.2994 -78.5864 45° Northeast 546 628 37,000  Level Washington Center
Fri 06:42:07 PM 37.4072 -78.4522 45° Northeast 546 628 37,000  Level Washington Center
Fri 06:43:07 PM 37.5211 -78.3044 46° Northeast 541 623 37,000  Level Washington Center
Fri 06:44:07 PM 37.6283 -78.1694 45° Northeast 541 623 37,000  Level Washington Center
Fri 06:45:07 PM 37.7292 -78.0364 46° Northeast 534 615 37,000  Level Washington Center
Fri 06:46:07 PM 37.8319 -77.9028 46° Northeast 534 615 37,000  Level Washington Center
Fri 06:47:07 PM 37.9322 -77.7744 45° Northeast 521 600 37,000  Level Washington Center
Fri 06:48:07 PM 38.0133 -77.6686 46° Northeast 521 600 37,000  Level Washington Center
Fri 06:49:07 PM 38.1264 -77.5186 46° Northeast 522 601 37,000  Level Washington Center
Fri 06:50:07 PM 38.2267 -77.3839 47° Northeast 527 606 37,000  Level Washington Center
Fri 06:51:07 PM 38.3308 -77.2461 46° Northeast 527 606 37,000  Level Washington Center
Fri 06:52:07 PM 38.4325 -77.1106 46° Northeast 527 606 37,000 -50 Level Washington Center
Fri 06:53:07 PM 38.5300 -76.9822 46° Northeast 515 593 36,900  Descending Washington Center
Fri 06:54:07 PM 38.6275 -76.8486 47° Northeast 508 585 37,000 -50 Climbing Washington Center
Fri 06:55:07 PM 38.7308 -76.7147 45° Northeast 513 590 36,800 -1,050 Descending Washington Center
Fri 06:56:07 PM 38.8406 -76.5883 42° Northeast 513 590 34,900 -2,000 Descending Washington Center
Fri 06:57:07 PM 38.9519 -76.4592 42° Northeast 523 602 32,800 -2,200 Descending Washington Center
Fri 06:58:07 PM 39.0633 -76.3294 42° Northeast 533 613 30,500 -2,250 Descending Washington Center
Fri 06:59:07 PM 39.1744 -76.1994 42° Northeast 533 613 28,300 -1,800 Descending Washington Center
Fri 07:00:07 PM 39.2958 -76.0608 41° Northeast 533 613 26,900 -1,100 Descending Washington Center
Fri 07:01:07 PM 39.4047 -75.9353 42° Northeast 527 606 26,100 -1,500 Descending Washington Center
Fri 07:02:07 PM 39.5092 -75.8094 43° Northeast 515 593 23,900 -2,200 Descending Washington Center
Fri 07:03:07 PM 39.6114 -75.6911 42° Northeast 510 587 21,700 -2,300 Descending Washington Center
Fri 07:04:07 PM 39.7114 -75.5700 43° Northeast 498 573 19,300 -2,100 Descending Washington Center
Fri 07:05:07 PM 39.7969 -75.4700 42° Northeast 485 558 17,500 -1,750 Descending Washington Center
Fri 07:06:07 PM 39.8883 -75.3536 44° Northeast 460 529 15,800 -1,750 Descending Washington Center
Fri 07:07:07 PM 39.9797 -75.2450 42° Northeast 449 517 14,000 -1,723 Descending Washington Center
Fri 07:09:15 PM 40.1667 -75.0167 43° Northeast 369 425 10,400 -1,577 Descending New York TRACON
Fri 07:10:21 PM 40.2500 -74.9167 42° Northeast 356 410 8,900 -1,143 Descending New York TRACON
Fri 07:11:21 PM 40.3167 -74.8333 44° Northeast 344 396 8,000 -1,000 Descending New York TRACON
Fri 07:12:21 PM 40.3833 -74.7333 49° Northeast 346 398 6,900 -1,000 Descending New York TRACON
Fri 07:13:21 PM 40.4500 -74.6667 37° Northeast 344 396 6,000 -400 Descending New York TRACON
Fri 07:14:21 PM 40.5333 -74.6333 17° North 327 376 6,100 50 Climbing New York TRACON
Fri 07:15:21 PM 40.6333 -74.6167 North 321 369 6,100  Level New York TRACON
Fri 07:16:15 PM 40.7000 -74.6000 11° North 284 327 6,100  Level New York TRACON
Fri 07:17:15 PM 40.7667 -74.5667 21° North 281 323 6,100  Level New York TRACON
Fri 07:18:15 PM 40.8500 -74.5500 North 288 331 6,100  Level New York TRACON
Fri 07:19:15 PM 40.9167 -74.5167 21° North 289 333 6,100 -100 Level New York TRACON
Fri 07:20:15 PM 41.0000 -74.4833 17° North 293 337 5,900 -500 Descending New York TRACON
Fri 07:21:15 PM 41.0667 -74.4167 37° Northeast 286 329 5,100 -400 Descending New York TRACON
Fri 07:22:15 PM 41.1167 -74.3500 45° Northeast 273 314 5,100  Level New York TRACON
Fri 07:23:15 PM 41.1500 -74.2833 56° Northeast 265 305 5,100  Level New York TRACON
Fri 07:24:15 PM 41.1000 -74.2333 143° Southeast 183 211 5,100  Level New York TRACON
Fri 07:25:15 PM 41.0500 -74.2000 153° Southeast 186 214 5,100 -450 Level New York TRACON
Fri 07:26:15 PM 41.0167 -74.1833 159° South 183 211 4,200 -500 Descending New York TRACON
Fri 07:27:15 PM 40.9667 -74.1500 153° Southeast 181 208 4,100 -50 Descending New York TRACON
Fri 07:28:15 PM 40.9333 -74.1167 143° Southeast 158 182 4,100 -100 Level New York TRACON
Fri 07:29:15 PM 40.9000 -74.0833 143° Southeast 161 185 3,900 -500 Descending New York TRACON
Fri 07:30:15 PM 40.8667 -74.0500 143° Southeast 153 176 3,100 -524 Descending New York TRACON
Fri 07:31:21 PM 40.8333 -74.0833 217° Southwest 134 154 2,800 -273 Descending New York TRACON

Login

Don't have an account? Register now (free) for customized features, flight alerts, and more!